sensor_id;sensor_type;location;lat;lon;timestamp;temperature;humidity
42109;DHT22;27765;51.228;7.626;2022-08-07T00:00:21;11.60;99.90
42109;DHT22;27765;51.228;7.626;2022-08-07T00:03:07;11.60;99.90
42109;DHT22;27765;51.228;7.626;2022-08-07T00:05:56;11.60;99.90
42109;DHT22;27765;51.228;7.626;2022-08-07T00:08:42;11.50;99.90
42109;DHT22;27765;51.228;7.626;2022-08-07T00:11:28;11.50;99.90
42109;DHT22;27765;51.228;7.626;2022-08-07T00:14:14;11.50;99.90
42109;DHT22;27765;51.228;7.626;2022-08-07T00:17:01;11.50;99.90
42109;DHT22;27765;51.228;7.626;2022-08-07T00:19:47;11.50;99.90
42109;DHT22;27765;51.228;7.626;2022-08-07T00:22:33;11.40;99.90
42109;DHT22;27765;51.228;7.626;2022-08-07T00:25:19;11.40;99.90
42109;DHT22;27765;51.228;7.626;2022-08-07T00:28:05;11.40;99.90
42109;DHT22;27765;51.228;7.626;2022-08-07T00:30:51;11.40;99.90
42109;DHT22;27765;51.228;7.626;2022-08-07T00:33:38;11.30;99.90
42109;DHT22;27765;51.228;7.626;2022-08-07T00:36:25;11.30;99.90
42109;DHT22;27765;51.228;7.626;2022-08-07T00:39:11;11.30;99.90
42109;DHT22;27765;51.228;7.626;2022-08-07T00:41:58;11.30;99.90
42109;DHT22;27765;51.228;7.626;2022-08-07T00:44:45;11.30;99.90
42109;DHT22;27765;51.228;7.626;2022-08-07T00:47:31;11.30;99.90
42109;DHT22;27765;51.228;7.626;2022-08-07T00:50:17;11.30;99.90
42109;DHT22;27765;51.228;7.626;2022-08-07T00:53:03;11.20;99.90
42109;DHT22;27765;51.228;7.626;2022-08-07T00:55:49;11.20;99.90
42109;DHT22;27765;51.228;7.626;2022-08-07T00:58:35;11.20;99.90
42109;DHT22;27765;51.228;7.626;2022-08-07T01:01:22;11.20;99.90
42109;DHT22;27765;51.228;7.626;2022-08-07T01:04:08;11.10;99.90
42109;DHT22;27765;51.228;7.626;2022-08-07T01:06:54;11.10;99.90
42109;DHT22;27765;51.228;7.626;2022-08-07T01:09:41;11.10;99.90
42109;DHT22;27765;51.228;7.626;2022-08-07T01:12:27;11.00;99.90
42109;DHT22;27765;51.228;7.626;2022-08-07T01:15:14;11.10;99.90
42109;DHT22;27765;51.228;7.626;2022-08-07T01:18:00;11.00;99.90
42109;DHT22;27765;51.228;7.626;2022-08-07T01:23:55;11.00;99.90
42109;DHT22;27765;51.228;7.626;2022-08-07T01:26:42;10.90;99.90
42109;DHT22;27765;51.228;7.626;2022-08-07T01:29:29;10.90;99.90
42109;DHT22;27765;51.228;7.626;2022-08-07T01:32:15;10.90;99.90
42109;DHT22;27765;51.228;7.626;2022-08-07T01:35:02;10.90;99.90
42109;DHT22;27765;51.228;7.626;2022-08-07T01:37:48;10.80;99.90
42109;DHT22;27765;51.228;7.626;2022-08-07T01:40:34;10.80;99.90
42109;DHT22;27765;51.228;7.626;2022-08-07T01:43:20;10.80;99.90
42109;DHT22;27765;51.228;7.626;2022-08-07T01:46:07;10.80;99.90
42109;DHT22;27765;51.228;7.626;2022-08-07T01:48:54;10.70;99.90
42109;DHT22;27765;51.228;7.626;2022-08-07T01:51:41;10.70;99.90
42109;DHT22;27765;51.228;7.626;2022-08-07T01:54:33;10.70;99.90
42109;DHT22;27765;51.228;7.626;2022-08-07T01:57:24;10.70;99.90
42109;DHT22;27765;51.228;7.626;2022-08-07T02:00:12;10.60;99.90
42109;DHT22;27765;51.228;7.626;2022-08-07T02:03:02;10.70;99.90
42109;DHT22;27765;51.228;7.626;2022-08-07T02:05:55;10.70;99.90
42109;DHT22;27765;51.228;7.626;2022-08-07T02:08:43;10.60;99.90
42109;DHT22;27765;51.228;7.626;2022-08-07T02:11:37;10.60;99.90
42109;DHT22;27765;51.228;7.626;2022-08-07T02:14:25;10.60;99.90
42109;DHT22;27765;51.228;7.626;2022-08-07T02:17:13;10.60;99.90
42109;DHT22;27765;51.228;7.626;2022-08-07T02:20:02;10.60;99.90
42109;DHT22;27765;51.228;7.626;2022-08-07T02:22:52;10.60;99.90
42109;DHT22;27765;51.228;7.626;2022-08-07T02:25:41;10.50;99.90
42109;DHT22;27765;51.228;7.626;2022-08-07T02:28:28;10.50;99.90
42109;DHT22;27765;51.228;7.626;2022-08-07T02:31:16;10.50;99.90
42109;DHT22;27765;51.228;7.626;2022-08-07T02:34:04;10.50;99.90
42109;DHT22;27765;51.228;7.626;2022-08-07T02:36:51;10.50;99.90
42109;DHT22;27765;51.228;7.626;2022-08-07T02:39:39;10.50;99.90
42109;DHT22;27765;51.228;7.626;2022-08-07T02:42:25;10.40;99.90
42109;DHT22;27765;51.228;7.626;2022-08-07T02:45:13;10.40;99.90
42109;DHT22;27765;51.228;7.626;2022-08-07T02:48:01;10.40;99.90
42109;DHT22;27765;51.228;7.626;2022-08-07T02:50:49;10.40;99.90
42109;DHT22;27765;51.228;7.626;2022-08-07T02:53:39;10.30;99.90
42109;DHT22;27765;51.228;7.626;2022-08-07T02:56:27;10.30;99.90
42109;DHT22;27765;51.228;7.626;2022-08-07T02:59:17;10.30;99.90
42109;DHT22;27765;51.228;7.626;2022-08-07T03:02:04;10.30;99.90
42109;DHT22;27765;51.228;7.626;2022-08-07T03:04:52;10.20;99.90
42109;DHT22;27765;51.228;7.626;2022-08-07T03:07:40;10.20;99.90
42109;DHT22;27765;51.228;7.626;2022-08-07T03:10:26;10.20;99.90
42109;DHT22;27765;51.228;7.626;2022-08-07T03:13:16;10.20;99.90
42109;DHT22;27765;51.228;7.626;2022-08-07T03:16:02;10.20;99.90
42109;DHT22;27765;51.228;7.626;2022-08-07T03:18:49;10.20;99.90
42109;DHT22;27765;51.228;7.626;2022-08-07T03:21:35;10.10;99.90
42109;DHT22;27765;51.228;7.626;2022-08-07T03:24:22;10.10;99.90
42109;DHT22;27765;51.228;7.626;2022-08-07T03:27:08;10.10;99.90
42109;DHT22;27765;51.228;7.626;2022-08-07T03:29:55;10.10;99.90
42109;DHT22;27765;51.228;7.626;2022-08-07T03:32:42;10.10;99.90
42109;DHT22;27765;51.228;7.626;2022-08-07T03:35:31;10.10;99.90
42109;DHT22;27765;51.228;7.626;2022-08-07T03:38:19;10.10;99.90
42109;DHT22;27765;51.228;7.626;2022-08-07T03:41:06;10.00;99.90
42109;DHT22;27765;51.228;7.626;2022-08-07T03:43:53;10.00;99.90
42109;DHT22;27765;51.228;7.626;2022-08-07T03:46:40;10.00;99.90
42109;DHT22;27765;51.228;7.626;2022-08-07T03:49:27;10.00;99.90
42109;DHT22;27765;51.228;7.626;2022-08-07T03:52:15;10.00;99.90
42109;DHT22;27765;51.228;7.626;2022-08-07T03:55:02;10.00;99.90
42109;DHT22;27765;51.228;7.626;2022-08-07T03:57:49;10.00;99.90
42109;DHT22;27765;51.228;7.626;2022-08-07T04:00:37;10.00;99.90
42109;DHT22;27765;51.228;7.626;2022-08-07T04:03:25;10.00;99.90
42109;DHT22;27765;51.228;7.626;2022-08-07T04:06:11;10.00;99.90
42109;DHT22;27765;51.228;7.626;2022-08-07T04:08:58;9.90;99.90
42109;DHT22;27765;51.228;7.626;2022-08-07T04:11:45;10.00;99.90
42109;DHT22;27765;51.228;7.626;2022-08-07T04:14:33;9.90;99.90
42109;DHT22;27765;51.228;7.626;2022-08-07T04:17:19;9.90;99.90
42109;DHT22;27765;51.228;7.626;2022-08-07T04:20:09;9.90;99.90
42109;DHT22;27765;51.228;7.626;2022-08-07T04:22:57;9.90;99.90
42109;DHT22;27765;51.228;7.626;2022-08-07T04:25:44;9.90;99.90
42109;DHT22;27765;51.228;7.626;2022-08-07T04:28:30;9.90;99.90
42109;DHT22;27765;51.228;7.626;2022-08-07T04:31:16;9.90;99.90
42109;DHT22;27765;51.228;7.626;2022-08-07T04:34:03;9.90;99.90
42109;DHT22;27765;51.228;7.626;2022-08-07T04:36:49;9.90;99.90
42109;DHT22;27765;51.228;7.626;2022-08-07T04:39:35;10.00;99.90
42109;DHT22;27765;51.228;7.626;2022-08-07T04:42:21;10.00;99.90
42109;DHT22;27765;51.228;7.626;2022-08-07T04:45:12;10.00;99.90
42109;DHT22;27765;51.228;7.626;2022-08-07T04:48:03;10.00;99.90
42109;DHT22;27765;51.228;7.626;2022-08-07T04:50:58;10.10;99.90
42109;DHT22;27765;51.228;7.626;2022-08-07T04:53:51;10.10;99.90
42109;DHT22;27765;51.228;7.626;2022-08-07T04:56:49;10.10;99.90
42109;DHT22;27765;51.228;7.626;2022-08-07T04:59:45;10.20;99.90
42109;DHT22;27765;51.228;7.626;2022-08-07T05:06:13;10.20;99.90
42109;DHT22;27765;51.228;7.626;2022-08-07T05:09:11;10.30;99.90
42109;DHT22;27765;51.228;7.626;2022-08-07T05:12:02;10.40;99.90
42109;DHT22;27765;51.228;7.626;2022-08-07T05:14:51;10.40;99.90
42109;DHT22;27765;51.228;7.626;2022-08-07T05:17:38;10.50;99.90
42109;DHT22;27765;51.228;7.626;2022-08-07T05:20:33;10.50;99.90
42109;DHT22;27765;51.228;7.626;2022-08-07T05:23:31;10.60;99.90
42109;DHT22;27765;51.228;7.626;2022-08-07T05:26:21;10.60;99.90
42109;DHT22;27765;51.228;7.626;2022-08-07T05:29:08;10.70;99.90
42109;DHT22;27765;51.228;7.626;2022-08-07T05:31:56;10.80;99.90
42109;DHT22;27765;51.228;7.626;2022-08-07T05:34:44;10.90;99.90
42109;DHT22;27765;51.228;7.626;2022-08-07T05:37:33;11.20;99.90
42109;DHT22;27765;51.228;7.626;2022-08-07T05:40:20;12.00;99.90
42109;DHT22;27765;51.228;7.626;2022-08-07T05:43:06;12.90;99.90
42109;DHT22;27765;51.228;7.626;2022-08-07T05:45:53;13.80;99.90
42109;DHT22;27765;51.228;7.626;2022-08-07T05:48:40;14.60;99.90
42109;DHT22;27765;51.228;7.626;2022-08-07T05:51:26;15.10;99.90
42109;DHT22;27765;51.228;7.626;2022-08-07T05:54:12;15.30;99.90
42109;DHT22;27765;51.228;7.626;2022-08-07T05:57:00;15.40;99.90
42109;DHT22;27765;51.228;7.626;2022-08-07T05:59:47;15.20;99.90
42109;DHT22;27765;51.228;7.626;2022-08-07T06:02:35;15.00;99.90
42109;DHT22;27765;51.228;7.626;2022-08-07T06:05:23;14.80;99.90
42109;DHT22;27765;51.228;7.626;2022-08-07T06:08:15;14.50;99.90
42109;DHT22;27765;51.228;7.626;2022-08-07T06:11:01;14.40;99.90
42109;DHT22;27765;51.228;7.626;2022-08-07T06:13:47;14.30;99.90
42109;DHT22;27765;51.228;7.626;2022-08-07T06:16:33;14.20;99.90
42109;DHT22;27765;51.228;7.626;2022-08-07T06:19:20;14.20;99.90
42109;DHT22;27765;51.228;7.626;2022-08-07T06:22:07;14.20;99.90
42109;DHT22;27765;51.228;7.626;2022-08-07T06:24:53;14.30;99.90
42109;DHT22;27765;51.228;7.626;2022-08-07T06:27:42;14.50;99.90
42109;DHT22;27765;51.228;7.626;2022-08-07T06:30:28;14.90;99.90
42109;DHT22;27765;51.228;7.626;2022-08-07T06:33:14;15.50;99.90
42109;DHT22;27765;51.228;7.626;2022-08-07T06:36:00;16.50;99.90
42109;DHT22;27765;51.228;7.626;2022-08-07T06:38:46;17.70;99.90
42109;DHT22;27765;51.228;7.626;2022-08-07T06:41:41;19.10;99.90
42109;DHT22;27765;51.228;7.626;2022-08-07T06:44:28;20.30;99.90
42109;DHT22;27765;51.228;7.626;2022-08-07T06:47:15;21.40;99.90
42109;DHT22;27765;51.228;7.626;2022-08-07T06:50:01;22.30;99.30
42109;DHT22;27765;51.228;7.626;2022-08-07T06:52:53;22.90;93.40
42109;DHT22;27765;51.228;7.626;2022-08-07T06:55:40;23.50;92.20
42109;DHT22;27765;51.228;7.626;2022-08-07T06:58:26;24.20;91.70
42109;DHT22;27765;51.228;7.626;2022-08-07T07:01:14;24.90;91.40
42109;DHT22;27765;51.228;7.626;2022-08-07T07:04:04;25.50;81.50
42109;DHT22;27765;51.228;7.626;2022-08-07T07:06:51;25.90;70.70
42109;DHT22;27765;51.228;7.626;2022-08-07T07:09:37;26.10;62.60
42109;DHT22;27765;51.228;7.626;2022-08-07T07:12:51;26.70;62.60
42109;DHT22;27765;51.228;7.626;2022-08-07T07:15:54;27.40;59.10
42109;DHT22;27765;51.228;7.626;2022-08-07T07:18:54;27.90;58.30
42109;DHT22;27765;51.228;7.626;2022-08-07T07:21:42;28.30;54.90
42109;DHT22;27765;51.228;7.626;2022-08-07T07:24:29;28.70;54.40
42109;DHT22;27765;51.228;7.626;2022-08-07T07:27:17;29.00;51.10
42109;DHT22;27765;51.228;7.626;2022-08-07T07:30:06;29.20;52.20
42109;DHT22;27765;51.228;7.626;2022-08-07T07:32:54;29.60;57.80
42109;DHT22;27765;51.228;7.626;2022-08-07T07:35:43;29.90;55.50
42109;DHT22;27765;51.228;7.626;2022-08-07T07:38:31;29.90;48.40
42109;DHT22;27765;51.228;7.626;2022-08-07T07:41:21;30.30;49.50
42109;DHT22;27765;51.228;7.626;2022-08-07T07:44:08;30.60;52.50
42109;DHT22;27765;51.228;7.626;2022-08-07T07:46:56;30.60;45.10
42109;DHT22;27765;51.228;7.626;2022-08-07T07:49:44;30.90;51.30
42109;DHT22;27765;51.228;7.626;2022-08-07T07:52:32;31.50;54.30
42109;DHT22;27765;51.228;7.626;2022-08-07T07:55:19;32.00;50.50
42109;DHT22;27765;51.228;7.626;2022-08-07T07:58:06;32.10;42.20
42109;DHT22;27765;51.228;7.626;2022-08-07T08:00:52;32.50;45.90
42109;DHT22;27765;51.228;7.626;2022-08-07T08:03:40;33.10;43.20
42109;DHT22;27765;51.228;7.626;2022-08-07T08:06:26;32.10;40.70
42109;DHT22;27765;51.228;7.626;2022-08-07T08:09:15;32.30;42.50
42109;DHT22;27765;51.228;7.626;2022-08-07T08:12:01;33.10;41.80
42109;DHT22;27765;51.228;7.626;2022-08-07T08:14:48;33.70;40.30
42109;DHT22;27765;51.228;7.626;2022-08-07T08:17:35;34.20;40.40
42109;DHT22;27765;51.228;7.626;2022-08-07T08:20:21;34.80;40.70
42109;DHT22;27765;51.228;7.626;2022-08-07T08:23:09;35.60;40.30
42109;DHT22;27765;51.228;7.626;2022-08-07T08:26:15;36.40;39.80
42109;DHT22;27765;51.228;7.626;2022-08-07T08:29:20;37.30;38.80
42109;DHT22;27765;51.228;7.626;2022-08-07T08:32:10;37.70;37.30
42109;DHT22;27765;51.228;7.626;2022-08-07T08:34:57;38.10;37.40
42109;DHT22;27765;51.228;7.626;2022-08-07T08:37:45;38.30;33.60
42109;DHT22;27765;51.228;7.626;2022-08-07T08:40:39;37.50;32.80
42109;DHT22;27765;51.228;7.626;2022-08-07T08:43:34;37.60;33.10
42109;DHT22;27765;51.228;7.626;2022-08-07T08:46:42;37.40;31.70
42109;DHT22;27765;51.228;7.626;2022-08-07T08:49:35;37.60;32.20
42109;DHT22;27765;51.228;7.626;2022-08-07T08:52:27;37.70;30.10
42109;DHT22;27765;51.228;7.626;2022-08-07T08:55:33;38.10;29.90
42109;DHT22;27765;51.228;7.626;2022-08-07T09:01:33;38.30;31.20
42109;DHT22;27765;51.228;7.626;2022-08-07T09:05:01;38.70;30.50
42109;DHT22;27765;51.228;7.626;2022-08-07T09:11:18;39.60;30.30
42109;DHT22;27765;51.228;7.626;2022-08-07T09:17:45;39.10;30.30
42109;DHT22;27765;51.228;7.626;2022-08-07T09:31:09;40.10;29.40
42109;DHT22;27765;51.228;7.626;2022-08-07T09:34:20;40.50;28.80
42109;DHT22;27765;51.228;7.626;2022-08-07T09:37:15;39.60;28.00
42109;DHT22;27765;51.228;7.626;2022-08-07T09:52:48;40.40;28.30
42109;DHT22;27765;51.228;7.626;2022-08-07T09:59:00;40.80;29.60
42109;DHT22;27765;51.228;7.626;2022-08-07T10:08:27;42.10;28.50
42109;DHT22;27765;51.228;7.626;2022-08-07T10:15:03;41.70;27.20
42109;DHT22;27765;51.228;7.626;2022-08-07T10:36:51;41.90;27.80
42109;DHT22;27765;51.228;7.626;2022-08-07T10:43:20;42.00;27.20
42109;DHT22;27765;51.228;7.626;2022-08-07T10:46:14;41.50;25.80
42109;DHT22;27765;51.228;7.626;2022-08-07T10:49:25;40.60;27.40
42109;DHT22;27765;51.228;7.626;2022-08-07T10:59:00;40.30;26.90
42109;DHT22;27765;51.228;7.626;2022-08-07T11:02:00;40.30;28.30
42109;DHT22;27765;51.228;7.626;2022-08-07T11:11:10;40.30;28.90
42109;DHT22;27765;51.228;7.626;2022-08-07T11:19:58;39.30;27.20
42109;DHT22;27765;51.228;7.626;2022-08-07T11:26:03;38.60;27.80
42109;DHT22;27765;51.228;7.626;2022-08-07T11:29:13;38.00;27.40
42109;DHT22;27765;51.228;7.626;2022-08-07T11:32:16;37.80;28.20
42109;DHT22;27765;51.228;7.626;2022-08-07T11:35:10;37.20;28.60
42109;DHT22;27765;51.228;7.626;2022-08-07T11:38:10;37.00;29.20
42109;DHT22;27765;51.228;7.626;2022-08-07T11:41:13;36.30;27.90
42109;DHT22;27765;51.228;7.626;2022-08-07T11:47:47;36.10;29.10
42109;DHT22;27765;51.228;7.626;2022-08-07T11:50:43;35.80;28.20
42109;DHT22;27765;51.228;7.626;2022-08-07T11:53:51;35.30;28.60
42109;DHT22;27765;51.228;7.626;2022-08-07T11:57:11;35.10;29.80
42109;DHT22;27765;51.228;7.626;2022-08-07T12:00:18;35.10;29.70
42109;DHT22;27765;51.228;7.626;2022-08-07T12:03:29;35.10;30.00
42109;DHT22;27765;51.228;7.626;2022-08-07T12:06:27;35.10;30.20
42109;DHT22;27765;51.228;7.626;2022-08-07T12:09:34;35.00;30.60
42109;DHT22;27765;51.228;7.626;2022-08-07T12:12:27;34.90;30.70
42109;DHT22;27765;51.228;7.626;2022-08-07T12:15:20;34.70;31.10
42109;DHT22;27765;51.228;7.626;2022-08-07T12:18:14;34.50;31.40
42109;DHT22;27765;51.228;7.626;2022-08-07T12:27:15;33.90;30.80
42109;DHT22;27765;51.228;7.626;2022-08-07T12:30:05;33.80;30.40
42109;DHT22;27765;51.228;7.626;2022-08-07T12:33:13;33.60;30.70
42109;DHT22;27765;51.228;7.626;2022-08-07T12:36:03;33.30;31.00
42109;DHT22;27765;51.228;7.626;2022-08-07T12:38:50;33.00;31.60
42109;DHT22;27765;51.228;7.626;2022-08-07T12:41:38;32.80;32.20
42109;DHT22;27765;51.228;7.626;2022-08-07T12:44:27;32.60;32.30
42109;DHT22;27765;51.228;7.626;2022-08-07T12:53:59;32.20;35.60
42109;DHT22;27765;51.228;7.626;2022-08-07T12:56:48;31.50;32.60
42109;DHT22;27765;51.228;7.626;2022-08-07T12:59:36;31.40;33.80
42109;DHT22;27765;51.228;7.626;2022-08-07T13:02:39;31.40;34.90
42109;DHT22;27765;51.228;7.626;2022-08-07T13:05:52;31.40;34.70
42109;DHT22;27765;51.228;7.626;2022-08-07T13:18:49;30.10;33.90
42109;DHT22;27765;51.228;7.626;2022-08-07T13:21:45;30.00;36.30
42109;DHT22;27765;51.228;7.626;2022-08-07T13:24:39;30.30;38.90
42109;DHT22;27765;51.228;7.626;2022-08-07T13:30:16;30.60;37.70
42109;DHT22;27765;51.228;7.626;2022-08-07T13:35:56;30.80;35.30
42109;DHT22;27765;51.228;7.626;2022-08-07T13:39:07;30.90;34.80
42109;DHT22;27765;51.228;7.626;2022-08-07T13:41:55;30.80;35.20
42109;DHT22;27765;51.228;7.626;2022-08-07T13:44:42;31.00;38.10
42109;DHT22;27765;51.228;7.626;2022-08-07T13:47:29;31.20;34.90
42109;DHT22;27765;51.228;7.626;2022-08-07T13:50:19;31.40;35.60
42109;DHT22;27765;51.228;7.626;2022-08-07T13:53:07;31.30;32.80
42109;DHT22;27765;51.228;7.626;2022-08-07T13:55:55;31.50;34.40
42109;DHT22;27765;51.228;7.626;2022-08-07T13:58:44;31.60;33.40
42109;DHT22;27765;51.228;7.626;2022-08-07T14:01:52;31.60;34.80
42109;DHT22;27765;51.228;7.626;2022-08-07T14:07:40;31.80;34.20
42109;DHT22;27765;51.228;7.626;2022-08-07T14:10:34;31.60;34.70
42109;DHT22;27765;51.228;7.626;2022-08-07T14:13:28;31.40;33.80
42109;DHT22;27765;51.228;7.626;2022-08-07T14:16:18;31.60;35.10
42109;DHT22;27765;51.228;7.626;2022-08-07T14:19:13;31.20;34.30
42109;DHT22;27765;51.228;7.626;2022-08-07T14:22:02;31.50;39.40
42109;DHT22;27765;51.228;7.626;2022-08-07T14:24:52;31.80;35.20
42109;DHT22;27765;51.228;7.626;2022-08-07T14:27:44;32.00;35.10
42109;DHT22;27765;51.228;7.626;2022-08-07T14:30:31;32.20;34.90
42109;DHT22;27765;51.228;7.626;2022-08-07T14:33:18;32.20;34.00
42109;DHT22;27765;51.228;7.626;2022-08-07T14:36:07;32.20;34.80
42109;DHT22;27765;51.228;7.626;2022-08-07T14:38:54;32.20;34.40
42109;DHT22;27765;51.228;7.626;2022-08-07T14:41:41;32.10;34.50
42109;DHT22;27765;51.228;7.626;2022-08-07T14:44:29;31.90;34.40
42109;DHT22;27765;51.228;7.626;2022-08-07T14:47:17;31.80;34.80
42109;DHT22;27765;51.228;7.626;2022-08-07T14:50:06;31.50;35.00
42109;DHT22;27765;51.228;7.626;2022-08-07T14:52:53;31.40;35.60
42109;DHT22;27765;51.228;7.626;2022-08-07T14:55:40;31.10;35.50
42109;DHT22;27765;51.228;7.626;2022-08-07T14:58:33;30.40;34.80
42109;DHT22;27765;51.228;7.626;2022-08-07T15:01:30;29.90;35.40
42109;DHT22;27765;51.228;7.626;2022-08-07T15:04:18;29.80;36.30
42109;DHT22;27765;51.228;7.626;2022-08-07T15:07:08;29.70;36.90
42109;DHT22;27765;51.228;7.626;2022-08-07T15:09:56;29.50;36.50
42109;DHT22;27765;51.228;7.626;2022-08-07T15:12:43;29.30;37.10
42109;DHT22;27765;51.228;7.626;2022-08-07T15:15:36;29.30;39.20
42109;DHT22;27765;51.228;7.626;2022-08-07T15:18:42;29.20;38.40
42109;DHT22;27765;51.228;7.626;2022-08-07T15:21:33;29.00;40.10
42109;DHT22;27765;51.228;7.626;2022-08-07T15:24:35;28.90;41.30
42109;DHT22;27765;51.228;7.626;2022-08-07T15:27:24;28.80;40.30
42109;DHT22;27765;51.228;7.626;2022-08-07T15:30:12;28.70;40.30
42109;DHT22;27765;51.228;7.626;2022-08-07T15:33:00;28.60;39.40
42109;DHT22;27765;51.228;7.626;2022-08-07T15:35:51;28.70;41.00
42109;DHT22;27765;51.228;7.626;2022-08-07T15:38:38;28.60;40.40
42109;DHT22;27765;51.228;7.626;2022-08-07T15:41:28;28.50;39.10
42109;DHT22;27765;51.228;7.626;2022-08-07T15:44:18;28.40;39.60
42109;DHT22;27765;51.228;7.626;2022-08-07T15:47:06;28.30;39.30
42109;DHT22;27765;51.228;7.626;2022-08-07T15:49:54;28.30;39.40
42109;DHT22;27765;51.228;7.626;2022-08-07T15:52:43;28.20;39.20
42109;DHT22;27765;51.228;7.626;2022-08-07T15:55:32;28.20;40.10
42109;DHT22;27765;51.228;7.626;2022-08-07T15:58:22;28.10;41.10
42109;DHT22;27765;51.228;7.626;2022-08-07T16:01:26;28.10;40.50
42109;DHT22;27765;51.228;7.626;2022-08-07T16:04:13;28.00;39.40
42109;DHT22;27765;51.228;7.626;2022-08-07T16:07:03;27.90;39.60
42109;DHT22;27765;51.228;7.626;2022-08-07T16:09:52;27.80;40.70
42109;DHT22;27765;51.228;7.626;2022-08-07T16:19:34;27.80;39.90
42109;DHT22;27765;51.228;7.626;2022-08-07T16:25:35;27.70;39.30
42109;DHT22;27765;51.228;7.626;2022-08-07T16:37:47;27.40;40.40
42109;DHT22;27765;51.228;7.626;2022-08-07T16:50:23;27.10;40.70
42109;DHT22;27765;51.228;7.626;2022-08-07T16:53:35;27.00;39.90
42109;DHT22;27765;51.228;7.626;2022-08-07T17:15:18;26.90;39.90
42109;DHT22;27765;51.228;7.626;2022-08-07T17:18:15;26.80;40.10
42109;DHT22;27765;51.228;7.626;2022-08-07T17:21:32;26.80;42.10
42109;DHT22;27765;51.228;7.626;2022-08-07T17:30:51;26.00;40.80
42109;DHT22;27765;51.228;7.626;2022-08-07T17:33:58;25.80;41.00
42109;DHT22;27765;51.228;7.626;2022-08-07T17:36:53;25.60;40.80
42109;DHT22;27765;51.228;7.626;2022-08-07T17:45:25;25.40;43.00
42109;DHT22;27765;51.228;7.626;2022-08-07T17:48:19;25.40;42.90
42109;DHT22;27765;51.228;7.626;2022-08-07T17:51:17;25.40;43.40
42109;DHT22;27765;51.228;7.626;2022-08-07T17:54:17;25.30;42.80
42109;DHT22;27765;51.228;7.626;2022-08-07T17:57:10;25.30;43.30
42109;DHT22;27765;51.228;7.626;2022-08-07T18:00:02;25.20;44.00
42109;DHT22;27765;51.228;7.626;2022-08-07T18:03:09;25.10;43.60
42109;DHT22;27765;51.228;7.626;2022-08-07T18:06:05;25.00;44.50
42109;DHT22;27765;51.228;7.626;2022-08-07T18:08:53;24.90;43.80
42109;DHT22;27765;51.228;7.626;2022-08-07T18:11:49;24.80;44.40
42109;DHT22;27765;51.228;7.626;2022-08-07T18:14:48;24.60;44.50
42109;DHT22;27765;51.228;7.626;2022-08-07T18:17:48;24.40;44.00
42109;DHT22;27765;51.228;7.626;2022-08-07T18:20:42;24.30;44.80
42109;DHT22;27765;51.228;7.626;2022-08-07T18:42:16;22.80;51.60
42109;DHT22;27765;51.228;7.626;2022-08-07T18:45:10;22.50;52.70
42109;DHT22;27765;51.228;7.626;2022-08-07T18:48:25;22.30;54.30
42109;DHT22;27765;51.228;7.626;2022-08-07T18:51:24;22.10;56.40
42109;DHT22;27765;51.228;7.626;2022-08-07T18:54:32;21.90;59.80
42109;DHT22;27765;51.228;7.626;2022-08-07T18:57:41;21.70;61.80
42109;DHT22;27765;51.228;7.626;2022-08-07T19:06:47;21.00;78.20
42109;DHT22;27765;51.228;7.626;2022-08-07T19:12:43;20.70;91.10
42109;DHT22;27765;51.228;7.626;2022-08-07T19:15:50;20.50;93.30
42109;DHT22;27765;51.228;7.626;2022-08-07T19:19:02;20.30;94.90
42109;DHT22;27765;51.228;7.626;2022-08-07T19:25:33;19.90;97.70
42109;DHT22;27765;51.228;7.626;2022-08-07T19:28:28;19.80;99.60
42109;DHT22;27765;51.228;7.626;2022-08-07T19:31:29;19.60;99.90
42109;DHT22;27765;51.228;7.626;2022-08-07T19:34:19;19.40;99.90
42109;DHT22;27765;51.228;7.626;2022-08-07T19:37:08;19.30;99.90
42109;DHT22;27765;51.228;7.626;2022-08-07T19:39:58;19.20;99.90
42109;DHT22;27765;51.228;7.626;2022-08-07T19:42:46;19.00;99.90
42109;DHT22;27765;51.228;7.626;2022-08-07T19:45:33;18.90;99.90
42109;DHT22;27765;51.228;7.626;2022-08-07T19:48:37;18.80;99.90
42109;DHT22;27765;51.228;7.626;2022-08-07T19:51:23;18.90;99.90
42109;DHT22;27765;51.228;7.626;2022-08-07T19:54:13;19.00;99.90
42109;DHT22;27765;51.228;7.626;2022-08-07T19:57:01;19.00;99.90
42109;DHT22;27765;51.228;7.626;2022-08-07T19:59:57;18.90;99.90
42109;DHT22;27765;51.228;7.626;2022-08-07T20:02:50;18.70;99.90
42109;DHT22;27765;51.228;7.626;2022-08-07T20:05:40;18.50;99.90
42109;DHT22;27765;51.228;7.626;2022-08-07T20:08:32;18.40;99.90
42109;DHT22;27765;51.228;7.626;2022-08-07T20:11:20;18.30;99.90
42109;DHT22;27765;51.228;7.626;2022-08-07T20:14:07;18.20;99.90
42109;DHT22;27765;51.228;7.626;2022-08-07T20:16:59;18.10;99.90
42109;DHT22;27765;51.228;7.626;2022-08-07T20:19:47;18.00;99.90
42109;DHT22;27765;51.228;7.626;2022-08-07T20:22:35;17.90;99.90
42109;DHT22;27765;51.228;7.626;2022-08-07T20:25:26;17.80;99.90
42109;DHT22;27765;51.228;7.626;2022-08-07T20:28:15;17.70;99.90
42109;DHT22;27765;51.228;7.626;2022-08-07T20:31:12;17.60;99.90
42109;DHT22;27765;51.228;7.626;2022-08-07T20:33:58;17.50;99.90
42109;DHT22;27765;51.228;7.626;2022-08-07T20:36:46;17.40;99.90
42109;DHT22;27765;51.228;7.626;2022-08-07T20:39:35;17.30;99.90
42109;DHT22;27765;51.228;7.626;2022-08-07T20:42:24;17.20;99.90
42109;DHT22;27765;51.228;7.626;2022-08-07T20:45:14;17.00;99.90
42109;DHT22;27765;51.228;7.626;2022-08-07T20:48:02;17.00;99.90
42109;DHT22;27765;51.228;7.626;2022-08-07T20:50:55;16.90;99.90
42109;DHT22;27765;51.228;7.626;2022-08-07T20:53:42;16.80;99.90
42109;DHT22;27765;51.228;7.626;2022-08-07T20:56:31;16.70;99.90
42109;DHT22;27765;51.228;7.626;2022-08-07T20:59:21;16.70;99.90
42109;DHT22;27765;51.228;7.626;2022-08-07T21:02:20;16.60;99.90
42109;DHT22;27765;51.228;7.626;2022-08-07T21:05:47;16.50;99.90
42109;DHT22;27765;51.228;7.626;2022-08-07T21:08:37;16.50;99.90
42109;DHT22;27765;51.228;7.626;2022-08-07T21:11:26;16.40;99.90
42109;DHT22;27765;51.228;7.626;2022-08-07T21:14:19;16.40;99.90
42109;DHT22;27765;51.228;7.626;2022-08-07T21:17:09;16.20;99.90
42109;DHT22;27765;51.228;7.626;2022-08-07T21:19:55;16.20;99.90
42109;DHT22;27765;51.228;7.626;2022-08-07T21:22:48;16.20;99.90
42109;DHT22;27765;51.228;7.626;2022-08-07T21:25:45;16.10;99.90
42109;DHT22;27765;51.228;7.626;2022-08-07T21:28:40;16.10;99.90
42109;DHT22;27765;51.228;7.626;2022-08-07T21:34:31;15.90;99.90
42109;DHT22;27765;51.228;7.626;2022-08-07T21:37:46;15.90;99.90
42109;DHT22;27765;51.228;7.626;2022-08-07T21:40:46;15.90;99.90
42109;DHT22;27765;51.228;7.626;2022-08-07T21:44:03;15.80;99.90
42109;DHT22;27765;51.228;7.626;2022-08-07T21:46:56;15.70;99.90
42109;DHT22;27765;51.228;7.626;2022-08-07T21:49:49;15.70;99.90
42109;DHT22;27765;51.228;7.626;2022-08-07T21:53:02;15.60;99.90